sensor_id;sensor_type;location;lat;lon;timestamp;temperature;humidity
34406;DHT22;20658;45.630;8.886;2022-08-04T00:02:46;24.80;50.40
34406;DHT22;20658;45.630;8.886;2022-08-04T00:05:31;24.80;50.40
34406;DHT22;20658;45.630;8.886;2022-08-04T00:08:15;24.80;50.50
34406;DHT22;20658;45.630;8.886;2022-08-04T00:10:57;24.70;50.50
34406;DHT22;20658;45.630;8.886;2022-08-04T00:13:29;24.70;50.70
34406;DHT22;20658;45.630;8.886;2022-08-04T00:16:07;24.70;51.00
34406;DHT22;20658;45.630;8.886;2022-08-04T00:18:48;24.60;51.00
34406;DHT22;20658;45.630;8.886;2022-08-04T00:21:25;24.60;51.10
34406;DHT22;20658;45.630;8.886;2022-08-04T00:24:01;24.60;51.30
34406;DHT22;20658;45.630;8.886;2022-08-04T00:26:35;24.60;51.40
34406;DHT22;20658;45.630;8.886;2022-08-04T00:29:09;24.60;51.40
34406;DHT22;20658;45.630;8.886;2022-08-04T00:31:44;24.50;51.60
34406;DHT22;20658;45.630;8.886;2022-08-04T00:34:18;24.50;51.90
34406;DHT22;20658;45.630;8.886;2022-08-04T00:36:53;24.40;52.00
34406;DHT22;20658;45.630;8.886;2022-08-04T00:39:27;24.40;52.00
34406;DHT22;20658;45.630;8.886;2022-08-04T00:42:25;24.40;52.00
34406;DHT22;20658;45.630;8.886;2022-08-04T00:45:27;24.30;52.50
34406;DHT22;20658;45.630;8.886;2022-08-04T00:48:26;24.30;52.70
34406;DHT22;20658;45.630;8.886;2022-08-04T00:51:14;24.30;52.80
34406;DHT22;20658;45.630;8.886;2022-08-04T00:54:09;24.30;53.00
34406;DHT22;20658;45.630;8.886;2022-08-04T00:57:05;24.30;52.90
34406;DHT22;20658;45.630;8.886;2022-08-04T01:00:00;24.20;52.90
34406;DHT22;20658;45.630;8.886;2022-08-04T01:02:50;24.20;53.10
34406;DHT22;20658;45.630;8.886;2022-08-04T01:05:47;24.20;53.20
34406;DHT22;20658;45.630;8.886;2022-08-04T01:08:43;24.20;53.20
34406;DHT22;20658;45.630;8.886;2022-08-04T01:11:30;24.10;53.40
34406;DHT22;20658;45.630;8.886;2022-08-04T01:14:34;24.10;53.50
34406;DHT22;20658;45.630;8.886;2022-08-04T01:17:49;24.00;53.50
34406;DHT22;20658;45.630;8.886;2022-08-04T01:20:31;24.00;53.80
34406;DHT22;20658;45.630;8.886;2022-08-04T01:26:47;24.00;54.20
34406;DHT22;20658;45.630;8.886;2022-08-04T01:29:30;23.90;54.60
34406;DHT22;20658;45.630;8.886;2022-08-04T01:32:11;23.90;54.60
34406;DHT22;20658;45.630;8.886;2022-08-04T01:34:49;23.90;54.80
34406;DHT22;20658;45.630;8.886;2022-08-04T01:37:32;23.90;54.70
34406;DHT22;20658;45.630;8.886;2022-08-04T01:40:14;23.80;54.90
34406;DHT22;20658;45.630;8.886;2022-08-04T01:42:51;23.80;55.00
34406;DHT22;20658;45.630;8.886;2022-08-04T01:45:27;23.80;55.00
34406;DHT22;20658;45.630;8.886;2022-08-04T01:48:02;23.80;55.10
34406;DHT22;20658;45.630;8.886;2022-08-04T01:50:36;23.80;55.20
34406;DHT22;20658;45.630;8.886;2022-08-04T01:53:10;23.80;55.30
34406;DHT22;20658;45.630;8.886;2022-08-04T01:55:45;23.80;55.30
34406;DHT22;20658;45.630;8.886;2022-08-04T01:58:21;23.80;55.40
34406;DHT22;20658;45.630;8.886;2022-08-04T02:00:58;23.70;55.60
34406;DHT22;20658;45.630;8.886;2022-08-04T02:03:34;23.70;55.90
34406;DHT22;20658;45.630;8.886;2022-08-04T02:06:17;23.70;55.80
34406;DHT22;20658;45.630;8.886;2022-08-04T02:09:02;23.70;56.10
34406;DHT22;20658;45.630;8.886;2022-08-04T02:11:48;23.70;56.10
34406;DHT22;20658;45.630;8.886;2022-08-04T02:14:28;23.70;56.10
34406;DHT22;20658;45.630;8.886;2022-08-04T02:17:23;23.60;56.30
34406;DHT22;20658;45.630;8.886;2022-08-04T02:20:06;23.60;56.60
34406;DHT22;20658;45.630;8.886;2022-08-04T02:22:46;23.60;56.70
34406;DHT22;20658;45.630;8.886;2022-08-04T02:25:36;23.50;56.90
34406;DHT22;20658;45.630;8.886;2022-08-04T02:28:21;23.50;57.00
34406;DHT22;20658;45.630;8.886;2022-08-04T02:31:07;23.50;57.00
34406;DHT22;20658;45.630;8.886;2022-08-04T02:33:44;23.50;57.10
34406;DHT22;20658;45.630;8.886;2022-08-04T02:36:23;23.40;57.20
34406;DHT22;20658;45.630;8.886;2022-08-04T02:38:58;23.50;57.50
34406;DHT22;20658;45.630;8.886;2022-08-04T02:41:33;23.40;57.60
34406;DHT22;20658;45.630;8.886;2022-08-04T02:44:09;23.40;57.70
34406;DHT22;20658;45.630;8.886;2022-08-04T02:46:39;23.40;57.80
34406;DHT22;20658;45.630;8.886;2022-08-04T02:49:10;23.40;58.10
34406;DHT22;20658;45.630;8.886;2022-08-04T02:51:42;23.40;58.20
34406;DHT22;20658;45.630;8.886;2022-08-04T02:54:24;23.40;58.30
34406;DHT22;20658;45.630;8.886;2022-08-04T02:56:56;23.40;58.20
34406;DHT22;20658;45.630;8.886;2022-08-04T02:59:28;23.30;58.50
34406;DHT22;20658;45.630;8.886;2022-08-04T03:02:04;23.20;58.70
34406;DHT22;20658;45.630;8.886;2022-08-04T03:04:49;23.20;58.80
34406;DHT22;20658;45.630;8.886;2022-08-04T03:14:22;23.10;59.30
34406;DHT22;20658;45.630;8.886;2022-08-04T03:20:50;23.10;59.80
34406;DHT22;20658;45.630;8.886;2022-08-04T03:31:10;23.10;60.20
34406;DHT22;20658;45.630;8.886;2022-08-04T03:34:27;23.00;60.30
34406;DHT22;20658;45.630;8.886;2022-08-04T03:37:30;23.00;60.50
34406;DHT22;20658;45.630;8.886;2022-08-04T03:44:01;23.00;60.70
34406;DHT22;20658;45.630;8.886;2022-08-04T03:50:18;23.00;61.30
34406;DHT22;20658;45.630;8.886;2022-08-04T03:53:15;23.00;61.30
34406;DHT22;20658;45.630;8.886;2022-08-04T03:56:36;23.00;61.30
34406;DHT22;20658;45.630;8.886;2022-08-04T03:59:42;23.00;61.50
34406;DHT22;20658;45.630;8.886;2022-08-04T04:06:13;23.00;61.80
34406;DHT22;20658;45.630;8.886;2022-08-04T04:09:27;23.00;61.90
34406;DHT22;20658;45.630;8.886;2022-08-04T04:12:46;23.00;62.00
34406;DHT22;20658;45.630;8.886;2022-08-04T04:15:47;23.10;62.00
34406;DHT22;20658;45.630;8.886;2022-08-04T04:18:46;23.00;62.00
34406;DHT22;20658;45.630;8.886;2022-08-04T04:24:53;23.00;62.30
34406;DHT22;20658;45.630;8.886;2022-08-04T04:27:42;23.00;62.50
34406;DHT22;20658;45.630;8.886;2022-08-04T04:30:29;23.00;62.80
34406;DHT22;20658;45.630;8.886;2022-08-04T04:33:19;23.00;63.00
34406;DHT22;20658;45.630;8.886;2022-08-04T04:36:05;23.00;63.20
34406;DHT22;20658;45.630;8.886;2022-08-04T04:39:12;23.00;63.40
34406;DHT22;20658;45.630;8.886;2022-08-04T04:42:11;23.10;63.60
34406;DHT22;20658;45.630;8.886;2022-08-04T04:45:11;23.00;63.70
34406;DHT22;20658;45.630;8.886;2022-08-04T04:47:55;23.00;63.70
34406;DHT22;20658;45.630;8.886;2022-08-04T04:50:38;23.10;63.90
34406;DHT22;20658;45.630;8.886;2022-08-04T04:53:26;23.20;63.60
34406;DHT22;20658;45.630;8.886;2022-08-04T04:56:04;23.20;63.50
34406;DHT22;20658;45.630;8.886;2022-08-04T04:58:42;23.30;63.50
34406;DHT22;20658;45.630;8.886;2022-08-04T05:01:39;23.30;63.30
34406;DHT22;20658;45.630;8.886;2022-08-04T05:04:33;23.40;63.00
34406;DHT22;20658;45.630;8.886;2022-08-04T05:07:39;23.50;62.60
34406;DHT22;20658;45.630;8.886;2022-08-04T05:10:38;23.60;62.50
34406;DHT22;20658;45.630;8.886;2022-08-04T05:13:32;23.60;62.30
34406;DHT22;20658;45.630;8.886;2022-08-04T05:16:31;23.70;62.40
34406;DHT22;20658;45.630;8.886;2022-08-04T05:19:15;23.70;62.00
34406;DHT22;20658;45.630;8.886;2022-08-04T05:22:03;23.80;61.80
34406;DHT22;20658;45.630;8.886;2022-08-04T05:24:40;23.80;61.60
34406;DHT22;20658;45.630;8.886;2022-08-04T05:27:19;23.90;61.60
34406;DHT22;20658;45.630;8.886;2022-08-04T05:29:59;23.90;61.30
34406;DHT22;20658;45.630;8.886;2022-08-04T05:32:44;24.00;61.00
34406;DHT22;20658;45.630;8.886;2022-08-04T05:35:26;24.30;60.40
34406;DHT22;20658;45.630;8.886;2022-08-04T05:38:03;24.60;59.00
34406;DHT22;20658;45.630;8.886;2022-08-04T05:40:38;25.00;57.80
34406;DHT22;20658;45.630;8.886;2022-08-04T05:43:13;25.30;56.80
34406;DHT22;20658;45.630;8.886;2022-08-04T05:45:48;25.60;55.40
34406;DHT22;20658;45.630;8.886;2022-08-04T05:48:25;25.70;54.80
34406;DHT22;20658;45.630;8.886;2022-08-04T05:51:00;25.90;54.10
34406;DHT22;20658;45.630;8.886;2022-08-04T05:53:35;26.00;54.00
34406;DHT22;20658;45.630;8.886;2022-08-04T05:56:09;26.20;53.10
34406;DHT22;20658;45.630;8.886;2022-08-04T05:58:45;26.50;52.60
34406;DHT22;20658;45.630;8.886;2022-08-04T06:01:20;26.80;51.40
34406;DHT22;20658;45.630;8.886;2022-08-04T06:03:56;26.90;50.70
34406;DHT22;20658;45.630;8.886;2022-08-04T06:06:31;27.10;50.50
34406;DHT22;20658;45.630;8.886;2022-08-04T06:09:06;27.40;49.90
34406;DHT22;20658;45.630;8.886;2022-08-04T06:11:40;27.50;49.30
34406;DHT22;20658;45.630;8.886;2022-08-04T06:14:15;27.60;49.00
34406;DHT22;20658;45.630;8.886;2022-08-04T06:16:49;27.80;48.50
34406;DHT22;20658;45.630;8.886;2022-08-04T06:19:26;28.00;48.30
34406;DHT22;20658;45.630;8.886;2022-08-04T06:22:03;28.10;47.90
34406;DHT22;20658;45.630;8.886;2022-08-04T06:24:38;28.30;47.30
34406;DHT22;20658;45.630;8.886;2022-08-04T06:27:13;28.50;47.30
34406;DHT22;20658;45.630;8.886;2022-08-04T06:29:48;28.80;46.40
34406;DHT22;20658;45.630;8.886;2022-08-04T06:32:23;28.80;46.20
34406;DHT22;20658;45.630;8.886;2022-08-04T06:35:00;29.10;46.00
34406;DHT22;20658;45.630;8.886;2022-08-04T06:37:36;29.10;46.00
34406;DHT22;20658;45.630;8.886;2022-08-04T06:40:12;29.40;45.10
34406;DHT22;20658;45.630;8.886;2022-08-04T06:42:47;29.60;44.60
34406;DHT22;20658;45.630;8.886;2022-08-04T06:45:23;29.80;44.20
34406;DHT22;20658;45.630;8.886;2022-08-04T06:47:57;29.80;43.90
34406;DHT22;20658;45.630;8.886;2022-08-04T06:50:34;30.00;44.10
34406;DHT22;20658;45.630;8.886;2022-08-04T06:53:08;30.20;43.40
34406;DHT22;20658;45.630;8.886;2022-08-04T06:55:44;30.20;43.40
34406;DHT22;20658;45.630;8.886;2022-08-04T06:58:20;30.40;42.80
34406;DHT22;20658;45.630;8.886;2022-08-04T07:00:55;30.10;42.40
34406;DHT22;20658;45.630;8.886;2022-08-04T07:03:32;30.50;42.00
34406;DHT22;20658;45.630;8.886;2022-08-04T07:06:08;30.70;41.40
34406;DHT22;20658;45.630;8.886;2022-08-04T07:08:42;31.00;41.40
34406;DHT22;20658;45.630;8.886;2022-08-04T07:11:16;31.40;40.60
34406;DHT22;20658;45.630;8.886;2022-08-04T07:13:51;31.60;39.60
34406;DHT22;20658;45.630;8.886;2022-08-04T07:16:26;31.90;38.80
34406;DHT22;20658;45.630;8.886;2022-08-04T07:19:00;32.10;38.90
34406;DHT22;20658;45.630;8.886;2022-08-04T07:21:36;32.40;37.30
34406;DHT22;20658;45.630;8.886;2022-08-04T07:24:09;32.40;37.50
34406;DHT22;20658;45.630;8.886;2022-08-04T07:26:43;32.50;36.70
34406;DHT22;20658;45.630;8.886;2022-08-04T07:29:22;32.50;36.40
34406;DHT22;20658;45.630;8.886;2022-08-04T07:31:57;32.60;36.70
34406;DHT22;20658;45.630;8.886;2022-08-04T07:34:31;32.70;35.80
34406;DHT22;20658;45.630;8.886;2022-08-04T07:37:06;32.80;36.30
34406;DHT22;20658;45.630;8.886;2022-08-04T07:39:40;32.80;35.60
34406;DHT22;20658;45.630;8.886;2022-08-04T07:42:17;32.80;35.70
34406;DHT22;20658;45.630;8.886;2022-08-04T07:44:52;33.00;36.00
34406;DHT22;20658;45.630;8.886;2022-08-04T07:47:25;33.00;35.20
34406;DHT22;20658;45.630;8.886;2022-08-04T07:49:59;32.90;35.00
34406;DHT22;20658;45.630;8.886;2022-08-04T07:52:36;32.90;34.80
34406;DHT22;20658;45.630;8.886;2022-08-04T07:55:10;32.80;35.00
34406;DHT22;20658;45.630;8.886;2022-08-04T07:57:43;32.90;35.30
34406;DHT22;20658;45.630;8.886;2022-08-04T08:00:17;33.20;35.20
34406;DHT22;20658;45.630;8.886;2022-08-04T08:02:51;33.40;35.00
34406;DHT22;20658;45.630;8.886;2022-08-04T08:05:28;33.30;34.80
34406;DHT22;20658;45.630;8.886;2022-08-04T08:08:03;33.50;34.80
34406;DHT22;20658;45.630;8.886;2022-08-04T08:10:37;33.50;34.40
34406;DHT22;20658;45.630;8.886;2022-08-04T08:13:11;33.60;34.60
34406;DHT22;20658;45.630;8.886;2022-08-04T08:15:45;33.60;35.10
34406;DHT22;20658;45.630;8.886;2022-08-04T08:18:18;33.80;34.60
34406;DHT22;20658;45.630;8.886;2022-08-04T08:20:52;34.10;34.80
34406;DHT22;20658;45.630;8.886;2022-08-04T08:23:29;34.20;34.40
34406;DHT22;20658;45.630;8.886;2022-08-04T08:26:05;34.20;34.10
34406;DHT22;20658;45.630;8.886;2022-08-04T08:28:39;34.20;34.80
34406;DHT22;20658;45.630;8.886;2022-08-04T08:31:13;34.10;34.30
34406;DHT22;20658;45.630;8.886;2022-08-04T08:33:47;34.30;33.70
34406;DHT22;20658;45.630;8.886;2022-08-04T08:36:25;34.20;34.20
34406;DHT22;20658;45.630;8.886;2022-08-04T08:39:06;34.40;34.00
34406;DHT22;20658;45.630;8.886;2022-08-04T08:48:44;34.30;33.50
34406;DHT22;20658;45.630;8.886;2022-08-04T08:51:37;34.50;32.70
34406;DHT22;20658;45.630;8.886;2022-08-04T08:54:38;34.30;33.20
34406;DHT22;20658;45.630;8.886;2022-08-04T08:57:36;34.40;33.50
34406;DHT22;20658;45.630;8.886;2022-08-04T09:00:19;34.40;33.10
34406;DHT22;20658;45.630;8.886;2022-08-04T09:03:40;34.50;32.80
34406;DHT22;20658;45.630;8.886;2022-08-04T09:06:36;34.80;32.90
34406;DHT22;20658;45.630;8.886;2022-08-04T09:12:26;34.50;32.70
34406;DHT22;20658;45.630;8.886;2022-08-04T09:15:06;34.50;32.60
34406;DHT22;20658;45.630;8.886;2022-08-04T09:17:47;34.40;32.70
34406;DHT22;20658;45.630;8.886;2022-08-04T09:20:29;34.30;32.80
34406;DHT22;20658;45.630;8.886;2022-08-04T09:23:10;34.50;32.60
34406;DHT22;20658;45.630;8.886;2022-08-04T09:25:56;35.00;33.10
34406;DHT22;20658;45.630;8.886;2022-08-04T09:28:37;34.90;32.40
34406;DHT22;20658;45.630;8.886;2022-08-04T09:31:21;35.00;32.50
34406;DHT22;20658;45.630;8.886;2022-08-04T09:34:03;34.70;32.10
34406;DHT22;20658;45.630;8.886;2022-08-04T09:36:46;34.50;32.70
34406;DHT22;20658;45.630;8.886;2022-08-04T09:39:27;34.40;32.80
34406;DHT22;20658;45.630;8.886;2022-08-04T09:42:13;34.40;32.90
34406;DHT22;20658;45.630;8.886;2022-08-04T09:44:59;34.10;32.80
34406;DHT22;20658;45.630;8.886;2022-08-04T09:47:41;34.20;33.10
34406;DHT22;20658;45.630;8.886;2022-08-04T09:50:31;34.30;32.60
34406;DHT22;20658;45.630;8.886;2022-08-04T09:53:17;34.70;31.60
34406;DHT22;20658;45.630;8.886;2022-08-04T09:56:02;35.10;31.10
34406;DHT22;20658;45.630;8.886;2022-08-04T09:58:53;35.20;30.50
34406;DHT22;20658;45.630;8.886;2022-08-04T10:01:32;35.40;30.80
34406;DHT22;20658;45.630;8.886;2022-08-04T10:04:11;35.70;30.20
34406;DHT22;20658;45.630;8.886;2022-08-04T10:07:02;35.90;30.10
34406;DHT22;20658;45.630;8.886;2022-08-04T10:10:11;35.80;29.90
34406;DHT22;20658;45.630;8.886;2022-08-04T10:13:13;35.40;30.80
34406;DHT22;20658;45.630;8.886;2022-08-04T10:15:55;35.30;31.10
34406;DHT22;20658;45.630;8.886;2022-08-04T10:18:49;35.20;31.40
34406;DHT22;20658;45.630;8.886;2022-08-04T10:21:37;35.60;30.80
34406;DHT22;20658;45.630;8.886;2022-08-04T10:24:35;35.80;30.00
34406;DHT22;20658;45.630;8.886;2022-08-04T10:27:22;35.50;30.40
34406;DHT22;20658;45.630;8.886;2022-08-04T10:30:01;35.60;29.50
34406;DHT22;20658;45.630;8.886;2022-08-04T10:32:48;35.60;29.80
34406;DHT22;20658;45.630;8.886;2022-08-04T10:35:25;35.70;29.50
34406;DHT22;20658;45.630;8.886;2022-08-04T10:38:09;36.00;30.50
34406;DHT22;20658;45.630;8.886;2022-08-04T10:40:49;36.50;30.20
34406;DHT22;20658;45.630;8.886;2022-08-04T10:43:39;36.50;29.80
34406;DHT22;20658;45.630;8.886;2022-08-04T10:46:22;36.30;29.50
34406;DHT22;20658;45.630;8.886;2022-08-04T10:49:03;35.70;30.00
34406;DHT22;20658;45.630;8.886;2022-08-04T10:51:43;36.10;30.80
34406;DHT22;20658;45.630;8.886;2022-08-04T10:54:25;35.80;30.90
34406;DHT22;20658;45.630;8.886;2022-08-04T10:56:58;36.20;30.70
34406;DHT22;20658;45.630;8.886;2022-08-04T10:59:40;36.30;30.40
34406;DHT22;20658;45.630;8.886;2022-08-04T11:02:25;36.40;30.60
34406;DHT22;20658;45.630;8.886;2022-08-04T11:05:24;36.10;31.40
34406;DHT22;20658;45.630;8.886;2022-08-04T11:08:04;36.50;31.00
34406;DHT22;20658;45.630;8.886;2022-08-04T11:10:45;36.80;30.10
34406;DHT22;20658;45.630;8.886;2022-08-04T11:13:23;36.70;30.00
34406;DHT22;20658;45.630;8.886;2022-08-04T11:16:04;36.80;29.70
34406;DHT22;20658;45.630;8.886;2022-08-04T11:19:06;36.50;29.40
34406;DHT22;20658;45.630;8.886;2022-08-04T11:21:53;36.50;29.60
34406;DHT22;20658;45.630;8.886;2022-08-04T11:24:35;36.80;29.70
34406;DHT22;20658;45.630;8.886;2022-08-04T11:27:14;37.30;29.50
34406;DHT22;20658;45.630;8.886;2022-08-04T11:29:55;37.10;29.30
34406;DHT22;20658;45.630;8.886;2022-08-04T11:32:37;37.10;29.60
34406;DHT22;20658;45.630;8.886;2022-08-04T11:35:22;37.20;29.20
34406;DHT22;20658;45.630;8.886;2022-08-04T11:38:08;37.40;28.60
34406;DHT22;20658;45.630;8.886;2022-08-04T11:40:48;37.50;28.70
34406;DHT22;20658;45.630;8.886;2022-08-04T11:43:28;36.80;29.50
34406;DHT22;20658;45.630;8.886;2022-08-04T11:46:11;36.70;29.30
34406;DHT22;20658;45.630;8.886;2022-08-04T11:48:54;37.20;29.60
34406;DHT22;20658;45.630;8.886;2022-08-04T11:51:31;36.90;29.10
34406;DHT22;20658;45.630;8.886;2022-08-04T11:54:07;36.90;29.20
34406;DHT22;20658;45.630;8.886;2022-08-04T11:56:40;37.30;29.10
34406;DHT22;20658;45.630;8.886;2022-08-04T11:59:14;37.70;28.80
34406;DHT22;20658;45.630;8.886;2022-08-04T12:02:06;37.50;28.10
34406;DHT22;20658;45.630;8.886;2022-08-04T12:05:02;37.50;28.80
34406;DHT22;20658;45.630;8.886;2022-08-04T12:07:51;37.70;28.90
34406;DHT22;20658;45.630;8.886;2022-08-04T12:10:38;38.00;28.90
34406;DHT22;20658;45.630;8.886;2022-08-04T12:13:19;38.10;28.80
34406;DHT22;20658;45.630;8.886;2022-08-04T12:16:04;37.90;28.70
34406;DHT22;20658;45.630;8.886;2022-08-04T12:18:48;37.90;28.60
34406;DHT22;20658;45.630;8.886;2022-08-04T12:21:24;38.10;28.60
34406;DHT22;20658;45.630;8.886;2022-08-04T12:24:04;38.20;28.30
34406;DHT22;20658;45.630;8.886;2022-08-04T12:26:37;38.40;28.10
34406;DHT22;20658;45.630;8.886;2022-08-04T12:29:17;38.20;28.20
34406;DHT22;20658;45.630;8.886;2022-08-04T12:31:55;38.30;28.50
34406;DHT22;20658;45.630;8.886;2022-08-04T12:34:36;38.20;28.40
34406;DHT22;20658;45.630;8.886;2022-08-04T12:37:25;38.50;27.60
34406;DHT22;20658;45.630;8.886;2022-08-04T12:40:10;38.70;27.50
34406;DHT22;20658;45.630;8.886;2022-08-04T12:42:54;38.90;27.30
34406;DHT22;20658;45.630;8.886;2022-08-04T12:45:34;38.70;27.30
34406;DHT22;20658;45.630;8.886;2022-08-04T12:48:08;38.60;27.60
34406;DHT22;20658;45.630;8.886;2022-08-04T12:50:46;38.80;27.20
34406;DHT22;20658;45.630;8.886;2022-08-04T12:53:22;39.00;27.50
34406;DHT22;20658;45.630;8.886;2022-08-04T12:55:59;39.00;27.80
34406;DHT22;20658;45.630;8.886;2022-08-04T12:58:39;39.10;27.80
34406;DHT22;20658;45.630;8.886;2022-08-04T13:01:17;39.10;27.40
34406;DHT22;20658;45.630;8.886;2022-08-04T13:03:53;39.10;27.40
34406;DHT22;20658;45.630;8.886;2022-08-04T13:06:31;39.00;27.50
34406;DHT22;20658;45.630;8.886;2022-08-04T13:09:09;38.90;26.60
34406;DHT22;20658;45.630;8.886;2022-08-04T13:11:49;39.00;27.50
34406;DHT22;20658;45.630;8.886;2022-08-04T13:14:33;39.00;27.70
34406;DHT22;20658;45.630;8.886;2022-08-04T13:17:08;38.90;26.80
34406;DHT22;20658;45.630;8.886;2022-08-04T13:19:48;38.90;26.90
34406;DHT22;20658;45.630;8.886;2022-08-04T13:22:28;38.80;27.10
34406;DHT22;20658;45.630;8.886;2022-08-04T13:25:02;38.70;27.40
34406;DHT22;20658;45.630;8.886;2022-08-04T13:27:37;38.70;27.10
34406;DHT22;20658;45.630;8.886;2022-08-04T13:30:17;38.90;27.00
34406;DHT22;20658;45.630;8.886;2022-08-04T13:32:54;38.90;27.40
34406;DHT22;20658;45.630;8.886;2022-08-04T13:35:30;38.90;27.00
34406;DHT22;20658;45.630;8.886;2022-08-04T13:38:07;38.90;27.20
34406;DHT22;20658;45.630;8.886;2022-08-04T13:40:43;39.10;27.70
34406;DHT22;20658;45.630;8.886;2022-08-04T13:43:26;38.80;27.40
34406;DHT22;20658;45.630;8.886;2022-08-04T13:46:05;39.00;27.70
34406;DHT22;20658;45.630;8.886;2022-08-04T13:48:43;39.00;27.70
34406;DHT22;20658;45.630;8.886;2022-08-04T13:51:19;39.00;27.60
34406;DHT22;20658;45.630;8.886;2022-08-04T13:53:55;39.10;27.60
34406;DHT22;20658;45.630;8.886;2022-08-04T13:56:37;39.00;27.70
34406;DHT22;20658;45.630;8.886;2022-08-04T13:59:15;39.20;27.70
34406;DHT22;20658;45.630;8.886;2022-08-04T14:01:59;39.30;27.40
34406;DHT22;20658;45.630;8.886;2022-08-04T14:04:40;39.40;27.40
34406;DHT22;20658;45.630;8.886;2022-08-04T14:07:15;39.00;27.60
34406;DHT22;20658;45.630;8.886;2022-08-04T14:09:50;39.40;27.50
34406;DHT22;20658;45.630;8.886;2022-08-04T14:12:23;39.40;27.20
34406;DHT22;20658;45.630;8.886;2022-08-04T14:14:57;39.30;27.40
34406;DHT22;20658;45.630;8.886;2022-08-04T14:17:32;39.30;27.40
34406;DHT22;20658;45.630;8.886;2022-08-04T14:20:06;39.40;27.20
34406;DHT22;20658;45.630;8.886;2022-08-04T14:22:40;39.50;27.00
34406;DHT22;20658;45.630;8.886;2022-08-04T14:25:15;39.30;26.90
34406;DHT22;20658;45.630;8.886;2022-08-04T14:27:50;39.20;27.00
34406;DHT22;20658;45.630;8.886;2022-08-04T14:30:27;39.30;27.20
34406;DHT22;20658;45.630;8.886;2022-08-04T14:33:04;39.30;26.80
34406;DHT22;20658;45.630;8.886;2022-08-04T14:35:38;39.10;27.20
34406;DHT22;20658;45.630;8.886;2022-08-04T14:38:12;39.10;27.20
34406;DHT22;20658;45.630;8.886;2022-08-04T14:40:46;39.30;27.00
34406;DHT22;20658;45.630;8.886;2022-08-04T14:43:19;39.40;27.00
34406;DHT22;20658;45.630;8.886;2022-08-04T14:46:03;39.60;26.90
34406;DHT22;20658;45.630;8.886;2022-08-04T14:48:38;39.60;26.70
34406;DHT22;20658;45.630;8.886;2022-08-04T14:51:13;39.60;26.70
34406;DHT22;20658;45.630;8.886;2022-08-04T14:53:47;39.50;26.80
34406;DHT22;20658;45.630;8.886;2022-08-04T14:56:21;39.60;26.40
34406;DHT22;20658;45.630;8.886;2022-08-04T14:58:59;39.40;27.00
34406;DHT22;20658;45.630;8.886;2022-08-04T15:01:35;39.20;27.20
34406;DHT22;20658;45.630;8.886;2022-08-04T15:04:11;39.40;27.20
34406;DHT22;20658;45.630;8.886;2022-08-04T15:06:46;39.40;26.80
34406;DHT22;20658;45.630;8.886;2022-08-04T15:09:20;39.60;26.80
34406;DHT22;20658;45.630;8.886;2022-08-04T15:11:53;39.50;26.60
34406;DHT22;20658;45.630;8.886;2022-08-04T15:14:27;39.50;26.50
34406;DHT22;20658;45.630;8.886;2022-08-04T15:17:01;39.40;27.00
34406;DHT22;20658;45.630;8.886;2022-08-04T15:19:36;39.30;26.80
34406;DHT22;20658;45.630;8.886;2022-08-04T15:22:10;39.40;26.80
34406;DHT22;20658;45.630;8.886;2022-08-04T15:24:44;39.50;26.90
34406;DHT22;20658;45.630;8.886;2022-08-04T15:27:20;39.80;26.20
34406;DHT22;20658;45.630;8.886;2022-08-04T15:30:03;39.80;26.50
34406;DHT22;20658;45.630;8.886;2022-08-04T15:32:41;39.80;26.50
34406;DHT22;20658;45.630;8.886;2022-08-04T15:35:23;39.80;26.40
34406;DHT22;20658;45.630;8.886;2022-08-04T15:38:02;39.80;26.30
34406;DHT22;20658;45.630;8.886;2022-08-04T15:40:44;39.70;26.60
34406;DHT22;20658;45.630;8.886;2022-08-04T15:43:43;39.80;26.10
34406;DHT22;20658;45.630;8.886;2022-08-04T15:46:14;40.00;26.60
34406;DHT22;20658;45.630;8.886;2022-08-04T15:48:50;40.00;26.70
34406;DHT22;20658;45.630;8.886;2022-08-04T15:51:25;39.80;26.50
34406;DHT22;20658;45.630;8.886;2022-08-04T15:54:19;39.80;26.40
34406;DHT22;20658;45.630;8.886;2022-08-04T15:56:54;40.00;26.70
34406;DHT22;20658;45.630;8.886;2022-08-04T15:59:59;39.80;26.50
34406;DHT22;20658;45.630;8.886;2022-08-04T16:02:41;39.80;26.40
34406;DHT22;20658;45.630;8.886;2022-08-04T16:05:34;40.10;26.90
34406;DHT22;20658;45.630;8.886;2022-08-04T16:08:15;40.30;26.40
34406;DHT22;20658;45.630;8.886;2022-08-04T16:10:49;40.10;26.20
34406;DHT22;20658;45.630;8.886;2022-08-04T16:13:23;40.10;26.20
34406;DHT22;20658;45.630;8.886;2022-08-04T16:15:57;39.80;26.30
34406;DHT22;20658;45.630;8.886;2022-08-04T16:18:39;39.70;27.20
34406;DHT22;20658;45.630;8.886;2022-08-04T16:21:22;39.80;27.00
34406;DHT22;20658;45.630;8.886;2022-08-04T16:24:13;40.10;27.20
34406;DHT22;20658;45.630;8.886;2022-08-04T16:26:54;40.10;26.70
34406;DHT22;20658;45.630;8.886;2022-08-04T16:29:31;40.00;26.90
34406;DHT22;20658;45.630;8.886;2022-08-04T16:32:18;39.90;26.70
34406;DHT22;20658;45.630;8.886;2022-08-04T16:34:55;40.00;27.10
34406;DHT22;20658;45.630;8.886;2022-08-04T16:37:33;40.10;26.80
34406;DHT22;20658;45.630;8.886;2022-08-04T16:40:29;40.00;26.40
34406;DHT22;20658;45.630;8.886;2022-08-04T16:43:06;40.10;26.80
34406;DHT22;20658;45.630;8.886;2022-08-04T16:45:51;40.10;26.90
34406;DHT22;20658;45.630;8.886;2022-08-04T16:48:27;39.90;26.50
34406;DHT22;20658;45.630;8.886;2022-08-04T16:51:02;40.20;26.50
34406;DHT22;20658;45.630;8.886;2022-08-04T16:53:39;40.30;26.10
34406;DHT22;20658;45.630;8.886;2022-08-04T16:56:16;40.00;26.10
34406;DHT22;20658;45.630;8.886;2022-08-04T16:58:50;40.00;26.10
34406;DHT22;20658;45.630;8.886;2022-08-04T17:01:24;39.80;25.60
34406;DHT22;20658;45.630;8.886;2022-08-04T17:04:01;39.80;26.20
34406;DHT22;20658;45.630;8.886;2022-08-04T17:06:40;39.70;26.20
34406;DHT22;20658;45.630;8.886;2022-08-04T17:09:15;39.80;26.50
34406;DHT22;20658;45.630;8.886;2022-08-04T17:11:51;39.60;27.00
34406;DHT22;20658;45.630;8.886;2022-08-04T17:14:27;39.60;27.20
34406;DHT22;20658;45.630;8.886;2022-08-04T17:17:01;39.60;27.30
34406;DHT22;20658;45.630;8.886;2022-08-04T17:19:35;39.40;27.10
34406;DHT22;20658;45.630;8.886;2022-08-04T17:22:08;39.40;27.40
34406;DHT22;20658;45.630;8.886;2022-08-04T17:24:42;39.40;27.00
34406;DHT22;20658;45.630;8.886;2022-08-04T17:27:17;39.40;27.30
34406;DHT22;20658;45.630;8.886;2022-08-04T17:29:50;39.20;27.20
34406;DHT22;20658;45.630;8.886;2022-08-04T17:32:24;39.00;27.30
34406;DHT22;20658;45.630;8.886;2022-08-04T17:34:59;38.80;26.70
34406;DHT22;20658;45.630;8.886;2022-08-04T17:37:40;38.80;27.30
34406;DHT22;20658;45.630;8.886;2022-08-04T17:40:15;38.80;27.40
34406;DHT22;20658;45.630;8.886;2022-08-04T17:43:00;38.70;27.50
34406;DHT22;20658;45.630;8.886;2022-08-04T17:45:35;38.10;28.10